createdAt,value
2019-02-04T00:00:49.193Z,16.93
2019-02-04T00:03:17.426Z,14.53
2019-02-04T00:05:44.419Z,14.65
2019-02-04T00:08:11.506Z,15.68
2019-02-04T00:10:38.517Z,13.93
2019-02-04T00:13:05.817Z,13.78
2019-02-04T00:15:32.954Z,15.32
2019-02-04T00:17:59.922Z,16.75
2019-02-04T00:20:26.923Z,15.40
2019-02-04T00:22:53.791Z,15.50
2019-02-04T00:25:21.703Z,13.65
2019-02-04T00:27:48.658Z,14.20
2019-02-04T00:30:15.741Z,15.13
2019-02-04T00:32:42.632Z,13.20
2019-02-04T00:35:09.710Z,16.35
2019-02-04T00:37:36.484Z,14.47
2019-02-04T00:40:05.172Z,14.23
2019-02-04T00:42:32.151Z,14.15
2019-02-04T00:44:58.937Z,15.35
2019-02-04T00:47:25.821Z,14.68
2019-02-04T00:49:52.618Z,14.47
2019-02-04T00:52:19.397Z,15.83
2019-02-04T00:54:46.186Z,15.08
2019-02-04T00:57:13.080Z,16.37
2019-02-04T00:59:40.083Z,17.77
2019-02-04T01:02:07.036Z,15.98
2019-02-04T01:04:34.408Z,13.28
2019-02-04T01:07:01.389Z,15.38
2019-02-04T01:09:28.371Z,13.22
2019-02-04T01:11:55.370Z,19.20
2019-02-04T01:14:22.365Z,12.73
2019-02-04T01:16:49.334Z,18.27
2019-02-04T01:19:16.308Z,13.93
2019-02-04T01:21:43.590Z,16.82
2019-02-04T01:24:10.564Z,17.50
2019-02-04T01:26:37.344Z,14.28
2019-02-04T01:29:04.333Z,19.42
2019-02-04T01:31:31.215Z,21.20
2019-02-04T01:33:58.013Z,17.57
2019-02-04T01:36:24.793Z,15.08
2019-02-04T01:38:51.978Z,17.25
2019-02-04T01:41:18.979Z,16.73
2019-02-04T01:43:45.749Z,13.98
2019-02-04T01:46:12.745Z,16.75
2019-02-04T01:48:39.630Z,16.95
2019-02-04T01:51:06.616Z,16.37
2019-02-04T01:53:33.408Z,17.07
2019-02-04T01:56:00.725Z,15.35
2019-02-04T01:58:27.523Z,17.05
2019-02-04T02:00:54.425Z,15.53
2019-02-04T02:03:21.416Z,17.45
2019-02-04T02:05:48.195Z,18.10
2019-02-04T02:08:17.988Z,17.50
2019-02-04T02:10:44.974Z,16.57
2019-02-04T02:13:12.287Z,15.98
2019-02-04T02:15:39.174Z,15.32
2019-02-04T02:18:06.255Z,15.65
2019-02-04T02:20:33.225Z,16.73
2019-02-04T02:23:00.122Z,20.62
2019-02-04T02:25:27.008Z,19.15
2019-02-04T02:27:54.045Z,18.52
2019-02-04T02:30:23.909Z,19.50
2019-02-04T02:32:50.934Z,17.65
2019-02-04T02:35:18.019Z,19.60
2019-02-04T02:37:45.027Z,18.60
2019-02-04T02:40:16.058Z,17.42
2019-02-04T02:42:42.941Z,22.10
2019-02-04T02:45:09.832Z,19.27
2019-02-04T02:47:38.467Z,20.20
2019-02-04T02:50:06.942Z,19.05
2019-02-04T02:52:33.912Z,20.82
2019-02-04T02:55:01.006Z,19.70
2019-02-04T02:57:28.085Z,19.15
2019-02-04T02:59:55.179Z,19.95
2019-02-04T03:02:22.065Z,20.68
2019-02-04T03:04:49.528Z,24.20
2019-02-04T03:07:19.462Z,23.55
2019-02-04T03:09:46.476Z,22.35
2019-02-04T03:12:13.441Z,20.27
2019-02-04T03:14:40.432Z,22.95
2019-02-04T03:17:07.425Z,19.55
2019-02-04T03:19:34.322Z,22.82
2019-02-04T03:22:01.331Z,20.12
2019-02-04T03:24:28.150Z,22.70
2019-02-04T03:26:55.055Z,18.30
2019-02-04T03:29:22.138Z,20.23
2019-02-04T03:31:48.954Z,22.00
2019-02-04T03:34:15.837Z,24.40
2019-02-04T03:36:42.763Z,22.20
2019-02-04T03:39:10.056Z,22.02
2019-02-04T03:41:36.952Z,20.30
2019-02-04T03:44:04.029Z,21.40
2019-02-04T03:46:31.010Z,19.35
2019-02-04T03:48:57.817Z,20.85
2019-02-04T03:51:24.814Z,27.75
2019-02-04T03:53:51.721Z,23.07
2019-02-04T03:56:18.845Z,21.23
2019-02-04T03:58:45.834Z,22.15
2019-02-04T04:01:12.824Z,17.98
2019-02-04T04:03:39.822Z,24.50
2019-02-04T04:06:06.816Z,22.73
2019-02-04T04:08:33.614Z,22.77
2019-02-04T04:11:00.504Z,20.25
2019-02-04T04:13:27.718Z,25.00
2019-02-04T04:15:54.696Z,23.32
2019-02-04T04:18:21.608Z,28.05
2019-02-04T04:20:48.591Z,24.05
2019-02-04T04:23:15.497Z,26.00
2019-02-04T04:25:42.278Z,29.77
2019-02-04T04:28:09.072Z,30.10
2019-02-04T04:30:36.462Z,25.23
2019-02-04T04:33:03.460Z,27.60
2019-02-04T04:35:30.357Z,24.82
2019-02-04T04:37:57.249Z,22.10
2019-02-04T04:40:24.267Z,24.02
2019-02-04T04:42:51.221Z,22.32
2019-02-04T04:45:20.257Z,32.17
2019-02-04T04:47:47.864Z,25.65
2019-02-04T04:50:15.277Z,25.40
2019-02-04T04:52:42.533Z,35.90
2019-02-04T04:55:11.315Z,29.52
2019-02-04T04:57:38.233Z,29.18
2019-02-04T05:00:07.361Z,32.08
2019-02-04T05:02:34.357Z,22.22
2019-02-04T05:05:01.647Z,23.12
2019-02-04T05:07:28.648Z,25.12
2019-02-04T05:09:55.637Z,28.23
2019-02-04T05:12:22.661Z,25.72
2019-02-04T05:14:49.461Z,27.85
2019-02-04T05:17:16.361Z,27.25
2019-02-04T05:19:43.182Z,30.92
2019-02-04T05:22:10.500Z,23.65
2019-02-04T05:24:37.434Z,24.70
2019-02-04T05:27:04.523Z,30.00
2019-02-04T05:29:31.310Z,31.20
2019-02-04T05:31:58.228Z,25.88
2019-02-04T05:34:25.032Z,32.63
2019-02-04T05:36:52.053Z,27.75
2019-02-04T05:39:19.240Z,31.05
2019-02-04T05:41:46.251Z,25.57
2019-02-04T05:44:13.225Z,28.92
2019-02-04T05:46:40.122Z,36.25
2019-02-04T05:49:07.104Z,34.95
2019-02-04T05:51:34.005Z,35.17
2019-02-04T05:54:01.101Z,41.63
2019-02-04T05:56:28.304Z,42.83
2019-02-04T05:58:55.245Z,47.78
2019-02-04T06:01:22.248Z,41.35
2019-02-04T06:03:49.048Z,47.27
2019-02-04T06:06:15.981Z,33.98
2019-02-04T06:08:42.806Z,34.95
2019-02-04T06:11:09.805Z,35.43
2019-02-04T06:13:36.733Z,30.02
2019-02-04T06:16:03.741Z,26.95
2019-02-04T06:18:30.662Z,31.55
2019-02-04T06:20:57.669Z,28.40
2019-02-04T06:23:24.848Z,26.42
2019-02-04T06:25:51.744Z,29.02
2019-02-04T06:28:18.741Z,25.40
2019-02-04T06:30:45.815Z,31.05
2019-02-04T06:33:12.881Z,30.17
2019-02-04T06:35:39.789Z,31.77
2019-02-04T06:38:06.758Z,38.28
2019-02-04T06:40:33.668Z,40.00
2019-02-04T06:43:00.462Z,48.05
2019-02-04T06:45:27.432Z,42.80
2019-02-04T06:47:54.422Z,35.52
2019-02-04T06:50:21.810Z,31.00
2019-02-04T06:52:48.823Z,37.33
2019-02-04T06:55:18.446Z,28.87
2019-02-04T06:57:45.429Z,32.03
2019-02-04T07:00:13.142Z,30.62
2019-02-04T07:02:40.189Z,27.98
2019-02-04T07:05:07.641Z,30.15
2019-02-04T07:07:35.039Z,31.50
2019-02-04T07:10:02.071Z,36.08
2019-02-04T07:12:28.957Z,30.12
2019-02-04T07:14:55.768Z,32.08
2019-02-04T07:17:22.706Z,31.75
2019-02-04T07:19:49.675Z,30.92
2019-02-04T07:22:16.597Z,31.93
2019-02-04T07:24:43.409Z,25.95
2019-02-04T07:27:10.206Z,27.00
2019-02-04T07:29:37.197Z,22.40
2019-02-04T07:32:04.189Z,16.75
2019-02-04T07:34:30.989Z,22.82
2019-02-04T07:36:57.896Z,20.57
2019-02-04T07:39:24.693Z,27.27
2019-02-04T07:41:51.593Z,18.80
2019-02-04T07:44:19.062Z,20.57
2019-02-04T07:46:46.064Z,16.17
2019-02-04T07:49:12.941Z,17.80
2019-02-04T07:51:39.837Z,13.93
2019-02-04T07:54:06.813Z,15.93
2019-02-04T07:56:33.593Z,17.40
2019-02-04T07:59:00.475Z,13.33
2019-02-04T08:01:27.473Z,15.23
2019-02-04T08:03:54.351Z,16.50
2019-02-04T08:06:21.232Z,15.47
2019-02-04T08:08:48.208Z,14.97
2019-02-04T08:11:15.017Z,15.67
2019-02-04T08:13:41.901Z,17.03
2019-02-04T08:16:08.845Z,15.47
2019-02-04T08:18:35.853Z,15.17
2019-02-04T08:21:03.238Z,15.43
2019-02-04T08:23:30.125Z,19.90
2019-02-04T08:25:57.096Z,14.87
2019-02-04T08:28:24.084Z,14.30
2019-02-04T08:30:51.046Z,19.87
2019-02-04T08:33:17.937Z,20.93
2019-02-04T08:35:45.083Z,18.83
2019-02-04T08:38:12.002Z,21.60
2019-02-04T08:40:38.877Z,18.27
2019-02-04T08:43:05.884Z,21.50
2019-02-04T08:45:33.139Z,21.80
2019-02-04T08:48:00.192Z,24.30
2019-02-04T08:50:27.891Z,15.37
2019-02-04T08:52:55.009Z,17.73
2019-02-04T08:55:22.397Z,16.93
2019-02-04T08:57:49.908Z,17.57
2019-02-04T09:00:18.533Z,16.47
2019-02-04T09:02:45.648Z,14.73
2019-02-04T09:05:13.683Z,20.47
2019-02-04T09:07:40.911Z,13.97
2019-02-04T09:10:09.056Z,11.10
2019-02-04T09:12:36.052Z,13.60
2019-02-04T09:15:04.443Z,17.43
2019-02-04T09:17:31.435Z,18.53
2019-02-04T09:20:09.390Z,12.07
2019-02-04T09:22:27.254Z,13.83
2019-02-04T09:24:54.165Z,15.87
2019-02-04T09:27:21.167Z,14.40
2019-02-04T09:29:48.157Z,16.60
2019-02-04T09:32:15.174Z,13.17
2019-02-04T09:34:42.461Z,36.67
2019-02-04T09:37:09.473Z,13.27
2019-02-04T09:39:39.714Z,19.07
2019-02-04T09:42:06.706Z,12.90
2019-02-04T09:44:33.612Z,11.70
2019-02-04T09:47:00.569Z,15.40
2019-02-04T09:49:27.449Z,10.30
2019-02-04T09:51:54.420Z,9.57
2019-02-04T09:54:21.495Z,13.07
2019-02-04T09:56:48.275Z,14.93
2019-02-04T09:59:15.171Z,14.60
2019-02-04T10:01:42.240Z,19.43
2019-02-04T10:04:09.140Z,12.30
2019-02-04T10:06:36.118Z,13.00
2019-02-04T10:09:06.262Z,15.63
2019-02-04T10:11:33.258Z,15.57
2019-02-04T10:14:00.041Z,10.90
2019-02-04T10:16:27.054Z,14.17
2019-02-04T10:18:54.027Z,12.00
2019-02-04T10:21:20.973Z,15.43
2019-02-04T10:23:48.043Z,14.10
2019-02-04T10:26:14.954Z,14.53
2019-02-04T10:28:41.744Z,11.33
2019-02-04T10:31:08.882Z,12.23
2019-02-04T10:33:36.235Z,11.90
2019-02-04T10:36:03.317Z,11.43
2019-02-04T10:38:30.334Z,14.60
2019-02-04T10:40:57.364Z,11.10
2019-02-04T10:43:24.437Z,12.97
2019-02-04T10:45:51.720Z,13.13
2019-02-04T10:48:18.801Z,12.07
2019-02-04T10:50:47.073Z,12.40
2019-02-04T10:53:14.445Z,10.37
2019-02-04T10:55:41.549Z,13.13
2019-02-04T10:58:10.085Z,12.70
2019-02-04T11:00:38.270Z,8.50
2019-02-04T11:03:05.685Z,9.87
2019-02-04T11:05:33.828Z,11.23
2019-02-04T11:08:00.899Z,11.97
2019-02-04T11:10:32.227Z,12.53
2019-02-04T11:12:59.424Z,14.03
2019-02-04T11:15:26.430Z,13.57
2019-02-04T11:17:53.562Z,11.73
2019-02-04T11:20:22.913Z,6.30
2019-02-04T11:22:50.199Z,8.93
2019-02-04T11:25:17.443Z,7.50
2019-02-04T11:27:44.526Z,9.27
2019-02-04T11:30:35.618Z,7.77
2019-02-04T11:33:02.857Z,7.73
2019-02-04T11:35:29.954Z,7.10
2019-02-04T11:37:57.035Z,6.77
2019-02-04T11:40:29.318Z,7.77
2019-02-04T11:42:56.382Z,9.33
2019-02-04T11:45:23.569Z,9.80
2019-02-04T11:47:50.594Z,7.43
2019-02-04T11:50:17.669Z,4.17
2019-02-04T11:52:44.671Z,4.37
2019-02-04T11:55:12.597Z,4.27
2019-02-04T11:57:39.585Z,3.87
2019-02-04T12:00:09.669Z,5.47
2019-02-04T12:02:37.057Z,2.87
2019-02-04T12:05:05.912Z,4.57
2019-02-04T12:07:32.699Z,5.37
2019-02-04T12:09:59.596Z,4.07
2019-02-04T12:12:26.487Z,5.83
2019-02-04T12:14:53.385Z,4.60
2019-02-04T12:17:20.377Z,5.83
2019-02-04T12:19:47.373Z,4.33
2019-02-04T12:22:14.282Z,4.27
2019-02-04T12:24:41.266Z,5.80
2019-02-04T12:27:08.256Z,6.57
2019-02-04T12:29:35.245Z,4.90
2019-02-04T12:32:02.127Z,4.50
2019-02-04T12:34:29.009Z,6.20
2019-02-04T12:36:55.948Z,6.37
2019-02-04T12:39:23.384Z,8.33
2019-02-04T12:41:50.890Z,6.30
2019-02-04T12:44:18.066Z,8.33
2019-02-04T12:46:44.985Z,7.30
2019-02-04T12:49:11.985Z,7.67
2019-02-04T12:51:39.009Z,8.43
2019-02-04T12:54:06.033Z,8.83
2019-02-04T12:56:32.937Z,10.83
2019-02-04T12:58:59.947Z,10.13
2019-02-04T13:01:26.977Z,10.40
2019-02-04T13:03:53.953Z,10.17
2019-02-04T13:06:20.989Z,8.70
2019-02-04T13:08:47.997Z,8.20
2019-02-04T13:11:15.003Z,9.20
2019-02-04T13:13:42.005Z,11.13
2019-02-04T13:16:08.997Z,13.43
2019-02-04T13:18:35.903Z,12.40
2019-02-04T13:21:03.348Z,12.80
2019-02-04T13:23:30.329Z,14.10
2019-02-04T13:25:57.233Z,10.27
2019-02-04T13:28:24.218Z,9.97
2019-02-04T13:30:51.016Z,11.00
2019-02-04T13:33:18.516Z,10.70
2019-02-04T13:35:45.613Z,9.87
2019-02-04T13:38:12.509Z,13.37
2019-02-04T13:40:44.375Z,11.00
2019-02-04T13:43:10.459Z,12.03
2019-02-04T13:45:37.868Z,9.33
2019-02-04T13:48:05.252Z,12.23
2019-02-04T13:50:32.355Z,12.47
2019-02-04T13:52:59.332Z,11.70
2019-02-04T13:55:28.410Z,12.80
2019-02-04T13:57:55.405Z,11.47
2019-02-04T14:00:26.837Z,9.50
2019-02-04T14:02:59.398Z,11.20
2019-02-04T14:05:22.075Z,11.17
2019-02-04T14:07:49.059Z,9.70
2019-02-04T14:10:18.285Z,11.17
2019-02-04T14:12:45.675Z,12.20
2019-02-04T14:15:13.317Z,10.73
2019-02-04T14:17:40.322Z,10.33
2019-02-04T14:20:10.396Z,9.27
2019-02-04T14:22:37.389Z,8.77
2019-02-04T14:25:04.730Z,14.17
2019-02-04T14:27:31.728Z,12.97
2019-02-04T14:29:58.723Z,9.63
2019-02-04T14:32:25.817Z,11.87
2019-02-04T14:34:54.628Z,9.83
2019-02-04T14:37:21.601Z,11.07
2019-02-04T14:39:48.492Z,9.60
2019-02-04T14:42:16.829Z,8.37
2019-02-04T14:45:11.049Z,8.97
2019-02-04T14:47:46.515Z,11.73
2019-02-04T14:50:38.710Z,11.20
2019-02-04T14:53:43.053Z,10.57
2019-02-04T14:56:38.461Z,10.97
2019-02-04T14:59:31.789Z,8.97
2019-02-04T15:02:33.537Z,10.67
2019-02-04T15:05:24.778Z,9.57
2019-02-04T15:08:37.097Z,9.13
2019-02-04T15:11:17.855Z,10.53
2019-02-04T15:14:42.079Z,10.00
2019-02-04T15:17:19.471Z,9.73
2019-02-04T15:20:13.389Z,11.73
2019-02-04T15:23:11.360Z,11.93
2019-02-04T15:26:38.439Z,12.33
2019-02-04T15:29:46.266Z,12.43
2019-02-04T15:32:29.625Z,13.13
2019-02-04T15:35:31.212Z,14.20
2019-02-04T15:38:17.341Z,14.87
2019-02-04T15:41:13.756Z,10.93
2019-02-04T15:44:18.795Z,14.00
2019-02-04T15:46:57.904Z,16.60
2019-02-04T15:49:51.774Z,13.23
2019-02-04T15:52:18.673Z,12.83
2019-02-04T15:54:45.657Z,17.40
2019-02-04T15:57:12.670Z,16.93
2019-02-04T15:59:39.676Z,14.90
2019-02-04T16:02:06.673Z,13.73
2019-02-04T16:04:34.660Z,12.90
2019-02-04T16:07:03.865Z,9.90
2019-02-04T16:09:30.933Z,13.70
2019-02-04T16:11:57.863Z,24.87
2019-02-04T16:14:27.295Z,17.97
2019-02-04T16:16:54.306Z,16.80
2019-02-04T16:19:21.189Z,11.50
2019-02-04T16:21:48.165Z,18.67
2019-02-04T16:24:15.156Z,17.50
2019-02-04T16:26:42.028Z,13.87
2019-02-04T16:29:08.955Z,11.77
2019-02-04T16:31:36.033Z,14.57
2019-02-04T16:34:03.645Z,17.87
2019-02-04T16:36:30.531Z,16.57
2019-02-04T16:38:57.534Z,11.88
2019-02-04T16:41:24.457Z,13.33
2019-02-04T16:43:51.353Z,14.78
2019-02-04T16:46:18.343Z,9.90
2019-02-04T16:48:45.352Z,14.05
2019-02-04T16:51:12.231Z,10.90
2019-02-04T16:53:39.130Z,16.17
2019-02-04T16:56:06.040Z,11.12
2019-02-04T16:58:32.840Z,13.25
2019-02-04T17:00:59.759Z,13.68
2019-02-04T17:03:26.760Z,19.15
2019-02-04T17:05:53.747Z,14.13
2019-02-04T17:08:20.657Z,13.85
2019-02-04T17:10:47.964Z,15.53
2019-02-04T17:13:14.987Z,17.65
2019-02-04T17:15:41.885Z,18.62
2019-02-04T17:18:08.986Z,21.45
2019-02-04T17:20:36.088Z,15.80
2019-02-04T17:23:03.152Z,17.20
2019-02-04T17:25:30.060Z,20.05
2019-02-04T17:27:57.216Z,17.73
2019-02-04T17:30:24.257Z,17.60
2019-02-04T17:32:51.277Z,24.12
2019-02-04T17:35:18.394Z,23.02
2019-02-04T17:37:45.470Z,18.90
2019-02-04T17:40:14.955Z,27.13
2019-02-04T17:42:42.140Z,16.97
2019-02-04T17:45:10.503Z,18.20
2019-02-04T17:47:37.603Z,28.73
2019-02-04T17:50:05.676Z,34.45
2019-02-04T17:52:32.764Z,29.95
2019-02-04T17:54:59.769Z,26.37
2019-02-04T17:57:29.934Z,29.45
2019-02-04T17:59:56.939Z,30.70
2019-02-04T18:02:24.228Z,24.43
2019-02-04T18:04:53.886Z,25.62
2019-02-04T18:07:23.954Z,24.75
2019-02-04T18:09:53.543Z,23.73
2019-02-04T18:12:20.536Z,35.90
2019-02-04T18:14:47.555Z,24.47
2019-02-04T18:17:14.553Z,26.37
2019-02-04T18:19:41.573Z,24.10
2019-02-04T18:22:08.573Z,22.07
2019-02-04T18:24:35.365Z,22.67
2019-02-04T18:27:02.769Z,23.83
2019-02-04T18:29:29.665Z,23.73
2019-02-04T18:31:57.088Z,24.37
2019-02-04T18:34:31.021Z,24.87
2019-02-04T18:36:57.928Z,27.50
2019-02-04T18:39:25.032Z,27.10
2019-02-04T18:41:51.944Z,28.27
2019-02-04T18:44:18.936Z,31.35
2019-02-04T18:46:46.429Z,29.70
2019-02-04T18:49:13.418Z,33.80
2019-02-04T18:51:40.525Z,29.20
2019-02-04T18:54:07.417Z,29.12
2019-02-04T18:56:34.309Z,28.77
2019-02-04T18:59:01.316Z,34.48
2019-02-04T19:01:28.216Z,28.80
2019-02-04T19:03:55.315Z,27.58
2019-02-04T19:06:22.217Z,28.15
2019-02-04T19:08:52.600Z,23.60
2019-02-04T19:11:19.621Z,26.27
2019-02-04T19:13:46.509Z,23.32
2019-02-04T19:16:13.546Z,25.15
2019-02-04T19:18:40.337Z,27.52
2019-02-04T19:21:07.333Z,25.08
2019-02-04T19:23:35.427Z,26.10
2019-02-04T19:26:02.738Z,28.45
2019-02-04T19:28:29.518Z,31.70
2019-02-04T19:31:11.891Z,30.60
2019-02-04T19:33:38.789Z,25.48
2019-02-04T19:36:07.789Z,24.98
2019-02-04T19:38:34.589Z,27.60
2019-02-04T19:41:01.611Z,27.17
2019-02-04T19:43:28.703Z,30.25
2019-02-04T19:45:55.633Z,25.55
2019-02-04T19:48:23.398Z,23.20
2019-02-04T19:50:50.456Z,26.00
2019-02-04T19:53:17.469Z,25.97
2019-02-04T19:55:44.467Z,27.48
2019-02-04T19:58:11.685Z,26.52
2019-02-04T20:00:38.792Z,25.10
2019-02-04T20:03:06.666Z,25.15
2019-02-04T20:05:33.672Z,24.82
2019-02-04T20:08:00.626Z,26.57
2019-02-04T20:10:28.877Z,23.02
2019-02-04T20:12:55.996Z,20.77
2019-02-04T20:15:25.237Z,23.10
2019-02-04T20:17:52.358Z,24.55
2019-02-04T20:20:19.573Z,22.07
2019-02-04T20:22:46.513Z,23.62
2019-02-04T20:25:16.423Z,23.38
2019-02-04T20:27:43.329Z,29.48
2019-02-04T20:30:14.252Z,31.00
2019-02-04T20:32:41.549Z,34.53
2019-02-04T20:35:10.756Z,30.65
2019-02-04T20:37:37.825Z,29.95
2019-02-04T20:40:06.066Z,30.08
2019-02-04T20:42:33.025Z,21.30
2019-02-04T20:44:59.941Z,22.98
2019-02-04T20:47:26.961Z,27.58
2019-02-04T20:49:54.270Z,24.20
2019-02-04T20:52:21.240Z,26.97
2019-02-04T20:54:48.132Z,25.00
2019-02-04T20:57:15.013Z,30.72
2019-02-04T20:59:41.951Z,23.90
2019-02-04T21:02:08.849Z,23.52
2019-02-04T21:04:35.669Z,25.92
2019-02-04T21:07:03.399Z,23.85
2019-02-04T21:09:30.745Z,29.25
2019-02-04T21:11:57.638Z,26.30
2019-02-04T21:14:24.462Z,29.27
2019-02-04T21:16:51.252Z,31.15
2019-02-04T21:19:18.173Z,29.55
2019-02-04T21:21:45.053Z,30.48
2019-02-04T21:24:11.969Z,26.40
2019-02-04T21:26:39.570Z,25.85
2019-02-04T21:29:06.634Z,26.55
2019-02-04T21:31:39.692Z,28.10
2019-02-04T21:34:06.813Z,29.95
2019-02-04T21:36:33.846Z,30.65
2019-02-04T21:39:00.940Z,39.90
2019-02-04T21:41:27.749Z,30.43
2019-02-04T21:43:55.026Z,26.20
2019-02-04T21:46:22.262Z,25.90
2019-02-04T21:48:49.204Z,26.02
2019-02-04T21:51:17.224Z,30.92
2019-02-04T21:53:44.456Z,30.92
2019-02-04T21:56:11.628Z,39.67
2019-02-04T21:58:47.849Z,32.73
2019-02-04T22:01:14.890Z,30.02
2019-02-04T22:03:41.924Z,33.90
2019-02-04T22:06:27.373Z,30.08
2019-02-04T22:08:54.946Z,36.80
2019-02-04T22:11:22.281Z,35.60
2019-02-04T22:13:49.529Z,32.30
2019-02-04T22:16:17.340Z,28.52
2019-02-04T22:18:44.838Z,34.43
2019-02-04T22:21:11.947Z,32.53
2019-02-04T22:23:38.908Z,32.15
2019-02-04T22:26:06.351Z,31.87
2019-02-04T22:28:33.597Z,31.23
2019-02-04T22:31:01.148Z,29.82
2019-02-04T22:33:28.040Z,29.30
2019-02-04T22:35:54.949Z,36.05
2019-02-04T22:38:22.035Z,30.23
2019-02-04T22:40:52.397Z,34.15
2019-02-04T22:43:19.494Z,30.62
2019-02-04T22:45:46.402Z,35.30
2019-02-04T22:48:13.489Z,37.05
2019-02-04T22:50:40.761Z,36.80
2019-02-04T22:53:07.738Z,32.80
2019-02-04T22:55:34.618Z,34.23
2019-02-04T22:58:01.695Z,30.57
2019-02-04T23:01:10.370Z,31.52
2019-02-04T23:03:37.861Z,36.75
2019-02-04T23:06:05.215Z,31.05
2019-02-04T23:08:32.221Z,34.30
2019-02-04T23:10:59.121Z,34.25
2019-02-04T23:13:26.142Z,36.73
2019-02-04T23:15:54.198Z,38.25
2019-02-04T23:18:21.148Z,33.30
2019-02-04T23:21:02.765Z,33.15
2019-02-04T23:23:29.737Z,34.38
2019-02-04T23:25:56.820Z,34.03
2019-02-04T23:28:24.261Z,30.90
2019-02-04T23:30:54.280Z,29.92
2019-02-04T23:33:21.285Z,34.98
2019-02-04T23:35:48.273Z,36.42
2019-02-04T23:38:15.217Z,31.35
2019-02-04T23:40:42.076Z,26.95
2019-02-04T23:43:08.962Z,30.85
2019-02-04T23:45:35.878Z,34.53
2019-02-04T23:48:04.012Z,31.33
2019-02-04T23:50:31.039Z,30.72
2019-02-04T23:53:04.397Z,33.08
2019-02-04T23:55:31.501Z,31.80
2019-02-04T23:57:58.577Z,28.90
